Mansfield, WA (98830)

1:49 PM PST on December 26, 2014 (GMT -0800)
The Highlands | Change Station
CLOSE
Current Station
Personal Weather Station
Location: Chelan, WA
Elevation: 1610 ft
Nearby Weather Stations

Elev 1610 ft 47.86 °N, 120.04 °W | Updated 10 minutes ago

Partly Cloudy
Partly Cloudy
40.5 °F
Feels Like 40 °F
N
2.0
Wind Variable Wind from SE
Gusts 3.0 mph

Today
High -- | Low -- °F
--% Chance of Precip.
Yesterday
High -- | Low -- °F
Precip. -- in
7:46 AM 4:11 PM
Waxing Crescent, 29% visible
Pressure 30.29 in
Visibility 10.0 miles
Clouds Clear
Windchill 40 °F
Dew Point 29 °F
Humidity 64%
Rainfall 0.00 in
Snow Depth Not available.
UV 1 out of 12
Pollen .50 out of 12
Air Quality Not available.
Flu Activity Not available.
METAR KEPH 262053Z AUTO 21007KT 10SM CLR 06/M04 A3026 RMK AO2 SLP257 T00561039 58008

More Conditions Fewer Conditions

Pressure 30.29 in
Visibility 10.0 miles
Clouds Clear
Windchill 40 °F
Dew Point 29 °F
Humidity 64%
Rainfall 0.00 in
Snow Depth Not available.
UV 1 out of 12
Pollen .50 out of 12
Air Quality Not available.
Flu Activity Not available.
METAR KEPH 262053Z AUTO 21007KT 10SM CLR 06/M04 A3026 RMK AO2 SLP257 T00561039 58008

More Conditions Fewer Conditions

10-Day Weather Forecast

Almanac

Astronomy

Dec. 26, 2014 Rise Set
Actual Time
Civil Twilight
Nautical Twilight
Astronomical Twilight
Moon
Length of Visible Light
Length of Day
Tomorrow will be .
, % of the Moon is Illuminated

Today's Extremes

State Highs State Lows

Community

WunderPhotos

Upload Photos

1,780,723 photos uploaded!

WunderBlogs® & News

Nearby

Air Quality

  Air Quality AQ Index Pollutant
Not available.

Snow Depth

Station Depth Elevation

Earthquake Activity

City Distance Mag. Time & Date
Minimum magnitude displayed is 2.5.

Coastal Water Temperatures

Place Temperature

Nearby Weather Stations